createdAt,value
2019-01-22T00:09:13.521Z,0.10
2019-01-22T00:20:12.164Z,0.24
2019-01-22T00:31:12.478Z,0.07
2019-01-22T00:42:12.739Z,0.18
2019-01-22T00:53:13.379Z,0.14
2019-01-22T01:04:14.637Z,-0.04
2019-01-22T01:15:19.449Z,-0.02
2019-01-22T01:26:16.648Z,0.06
2019-01-22T01:37:22.330Z,0.16
2019-01-22T01:48:26.298Z,0.03
2019-01-22T01:59:26.435Z,-0.01
2019-01-22T02:10:27.604Z,-0.04
2019-01-22T02:21:32.861Z,-0.01
2019-01-22T02:32:33.816Z,0.18
2019-01-22T02:43:35.282Z,-0.01
2019-01-22T02:54:39.340Z,-0.10
2019-01-22T03:05:43.131Z,-0.05
2019-01-22T03:16:48.289Z,-0.01
2019-01-22T03:27:49.133Z,-0.15
2019-01-22T03:38:47.371Z,-0.20
2019-01-22T03:49:51.054Z,-0.15
2019-01-22T04:00:55.641Z,-0.43
2019-01-22T04:11:45.217Z,-0.43
2019-01-22T04:22:49.989Z,-0.47
2019-01-22T04:33:52.945Z,-0.58
2019-01-22T04:44:56.166Z,-0.54
2019-01-22T04:55:57.915Z,-0.56
2019-01-22T05:06:55.067Z,-0.47
2019-01-22T05:18:00.399Z,-0.68
2019-01-22T05:29:05.608Z,-0.66
2019-01-22T05:40:03.914Z,-0.80
2019-01-22T05:51:06.768Z,-0.93
2019-01-22T06:02:12.045Z,-0.83
2019-01-22T06:13:14.032Z,-0.82
2019-01-22T06:24:12.729Z,-0.98
2019-01-22T06:35:13.886Z,-0.90
2019-01-22T06:46:12.110Z,-0.87
2019-01-22T06:57:16.528Z,-0.98
2019-01-22T07:08:16.121Z,-0.95
2019-01-22T07:19:16.251Z,-0.72
2019-01-22T07:30:14.428Z,-0.61
2019-01-22T07:41:15.660Z,-0.74
2019-01-22T07:52:15.915Z,-0.56
2019-01-22T08:03:14.543Z,-0.50
2019-01-22T08:14:19.106Z,-0.65
2019-01-22T08:25:24.293Z,-0.25
2019-01-22T08:36:29.298Z,-0.22
2019-01-22T08:47:26.286Z,-0.20
2019-01-22T08:58:21.867Z,-0.12
2019-01-22T09:09:24.028Z,0.29
2019-01-22T09:20:23.117Z,0.18
2019-01-22T09:31:24.198Z,0.21
2019-01-22T09:42:26.374Z,0.32
2019-01-22T09:53:24.431Z,0.28
2019-01-22T10:04:28.307Z,0.45
2019-01-22T10:15:27.322Z,0.36
2019-01-22T10:26:27.697Z,0.39
2019-01-22T10:37:28.963Z,0.32
2019-01-22T10:48:32.315Z,0.64
2019-01-22T10:59:33.540Z,0.89
2019-01-22T11:10:34.884Z,0.59
2019-01-22T11:21:34.034Z,0.52
2019-01-22T11:32:36.059Z,0.53
2019-01-22T11:43:36.654Z,0.50
2019-01-22T11:54:36.957Z,1.25
2019-01-22T12:05:41.167Z,1.19
2019-01-22T12:16:41.115Z,2.09
2019-01-22T12:27:43.058Z,2.37
2019-01-22T12:38:42.072Z,2.14
2019-01-22T12:49:46.567Z,3.03
2019-01-22T13:00:47.798Z,3.10
2019-01-22T13:11:42.339Z,2.48
2019-01-22T13:22:47.314Z,2.67
2019-01-22T13:33:44.635Z,3.03
2019-01-22T13:44:45.917Z,2.21
2019-01-22T13:55:47.925Z,2.12
2019-01-22T14:06:49.853Z,1.68
2019-01-22T14:17:49.295Z,1.43
2019-01-22T14:28:49.531Z,1.25
2019-01-22T14:39:48.206Z,1.15
2019-01-22T14:50:46.893Z,0.92
2019-01-22T15:01:41.839Z,0.71
2019-01-22T15:12:44.406Z,0.61
2019-01-22T15:23:45.199Z,0.36
2019-01-22T15:34:48.762Z,0.17
2019-01-22T15:45:51.129Z,0.03
2019-01-22T15:56:51.942Z,-0.14
2019-01-22T16:07:49.207Z,-0.20
2019-01-22T16:18:49.946Z,-0.29
2019-01-22T16:29:48.549Z,-0.17
2019-01-22T16:40:49.311Z,-0.02
2019-01-22T16:51:43.482Z,0.01
2019-01-22T17:02:38.210Z,-0.01
2019-01-22T17:13:39.932Z,-0.07
2019-01-22T17:24:38.274Z,-0.28
2019-01-22T17:35:41.932Z,0.11
2019-01-22T17:46:41.025Z,-0.02
2019-01-22T17:57:21.489Z,-0.01
2019-01-22T18:08:13.377Z,-0.10
2019-01-22T18:19:16.999Z,-0.07
2019-01-22T18:30:18.833Z,-0.01
2019-01-22T18:41:17.705Z,-0.15
2019-01-22T18:52:20.744Z,-0.10
2019-01-22T19:03:16.562Z,-0.08
2019-01-22T19:14:14.679Z,-0.01
2019-01-22T19:25:10.516Z,-0.14
2019-01-22T19:36:10.526Z,0.03
2019-01-22T19:47:08.489Z,-0.20
2019-01-22T19:58:06.395Z,-0.07
2019-01-22T20:09:07.805Z,-0.23
2019-01-22T20:20:06.731Z,-0.02
2019-01-22T20:31:00.388Z,-0.17
2019-01-22T20:42:02.774Z,-0.25
2019-01-22T20:53:01.503Z,-0.62
2019-01-22T21:04:00.158Z,-0.58
2019-01-22T21:14:58.718Z,-0.68
2019-01-22T21:25:58.423Z,-0.91
2019-01-22T21:37:00.352Z,-1.01
2019-01-22T21:48:04.884Z,-0.99
2019-01-22T21:59:09.222Z,-0.87
2019-01-22T22:10:09.384Z,-1.01
2019-01-22T22:21:13.990Z,-0.83
2019-01-22T22:32:17.630Z,-0.69
2019-01-22T22:43:21.469Z,-0.76
2019-01-22T22:54:20.280Z,-0.86
2019-01-22T23:05:23.245Z,-0.59
2019-01-22T23:16:23.839Z,-0.59
2019-01-22T23:27:27.031Z,-0.74
2019-01-22T23:38:29.586Z,-0.79
2019-01-22T23:49:34.163Z,-0.87
